createdAt,value
2022-10-03T00:01:31.524Z,100.00
2022-10-03T00:06:34.459Z,100.00
2022-10-03T00:11:37.536Z,100.00
2022-10-03T00:16:40.786Z,100.00
2022-10-03T00:21:44.721Z,100.00
2022-10-03T00:26:47.591Z,100.00
2022-10-03T00:31:51.169Z,100.00
2022-10-03T00:36:53.931Z,100.00
2022-10-03T00:41:57.003Z,100.00
2022-10-03T00:47:02.229Z,100.00
2022-10-03T00:52:05.155Z,100.00
2022-10-03T00:57:08.223Z,100.00
2022-10-03T01:02:11.227Z,100.00
2022-10-03T01:07:14.156Z,100.00
2022-10-03T01:12:17.016Z,100.00
2022-10-03T01:17:20.072Z,100.00
2022-10-03T01:22:22.783Z,100.00
2022-10-03T01:27:25.487Z,100.00
2022-10-03T01:32:28.966Z,100.00
2022-10-03T01:37:31.683Z,100.00
2022-10-03T01:42:34.359Z,100.00
2022-10-03T01:47:37.590Z,100.00
2022-10-03T01:52:40.564Z,100.00
2022-10-03T01:57:44.014Z,100.00
2022-10-03T02:02:46.698Z,100.00
2022-10-03T02:07:49.727Z,100.00
2022-10-03T02:12:52.430Z,100.00
2022-10-03T02:17:55.245Z,100.00
2022-10-03T02:22:57.989Z,100.00
2022-10-03T02:28:01.120Z,100.00
2022-10-03T02:33:04.427Z,100.00
2022-10-03T02:38:08.059Z,100.00
2022-10-03T02:43:10.837Z,100.00
2022-10-03T02:48:31.192Z,100.00
2022-10-03T02:53:34.936Z,100.00
2022-10-03T02:58:38.979Z,100.00
2022-10-03T03:03:41.854Z,100.00
2022-10-03T03:08:44.653Z,100.00
2022-10-03T03:13:49.726Z,100.00
2022-10-03T03:18:53.720Z,100.00
2022-10-03T03:23:56.476Z,100.00
2022-10-03T03:28:59.246Z,100.00
2022-10-03T03:34:07.100Z,100.00
2022-10-03T03:39:11.158Z,100.00
2022-10-03T03:44:13.889Z,100.00
2022-10-03T03:49:16.620Z,100.00
2022-10-03T03:54:19.523Z,100.00
2022-10-03T03:59:22.274Z,100.00
2022-10-03T04:04:24.963Z,100.00
2022-10-03T04:09:27.638Z,100.00
2022-10-03T04:14:30.972Z,100.00
2022-10-03T04:19:33.762Z,100.00
2022-10-03T04:24:37.462Z,100.00
2022-10-03T04:29:40.441Z,100.00
2022-10-03T04:34:43.403Z,100.00
2022-10-03T04:39:46.101Z,100.00
2022-10-03T04:44:49.078Z,100.00
2022-10-03T04:49:52.511Z,100.00
2022-10-03T04:54:55.360Z,100.00
2022-10-03T04:59:58.168Z,100.00
2022-10-03T05:05:01.206Z,100.00
2022-10-03T05:10:08.269Z,100.00
2022-10-03T05:15:14.562Z,100.00
2022-10-03T05:20:17.377Z,100.00
2022-10-03T05:25:20.689Z,100.00
2022-10-03T05:30:23.798Z,100.00
2022-10-03T05:35:26.644Z,100.00
2022-10-03T05:40:29.514Z,100.00
2022-10-03T05:45:32.336Z,100.00
2022-10-03T05:50:45.200Z,100.00
2022-10-03T05:55:48.746Z,100.00
2022-10-03T06:00:51.863Z,100.00
2022-10-03T06:05:57.641Z,100.00
2022-10-03T06:11:00.465Z,100.00
2022-10-03T06:16:03.302Z,100.00
2022-10-03T06:21:06.229Z,100.00
2022-10-03T06:26:09.011Z,100.00
2022-10-03T06:31:12.330Z,100.00
2022-10-03T06:36:15.159Z,100.00
2022-10-03T06:41:17.962Z,100.00
2022-10-03T06:46:20.862Z,100.00
2022-10-03T06:51:29.702Z,100.00
2022-10-03T06:56:33.338Z,100.00
2022-10-03T07:01:36.263Z,100.00
2022-10-03T07:06:39.379Z,100.00
2022-10-03T07:11:44.151Z,100.00
2022-10-03T07:16:47.205Z,100.00
2022-10-03T07:21:53.256Z,100.00
2022-10-03T07:26:57.537Z,100.00
2022-10-03T07:32:01.427Z,100.00
2022-10-03T07:37:22.372Z,100.00
2022-10-03T07:42:25.766Z,100.00
2022-10-03T07:47:28.517Z,100.00
2022-10-03T07:52:31.370Z,100.00
2022-10-03T07:57:37.942Z,100.00
2022-10-03T08:02:40.832Z,100.00
2022-10-03T08:07:45.142Z,100.00
2022-10-03T08:12:47.921Z,100.00
2022-10-03T08:17:50.893Z,100.00
2022-10-03T08:22:54.014Z,100.00
2022-10-03T08:27:56.978Z,100.00
2022-10-03T08:32:59.918Z,100.00
2022-10-03T08:38:03.349Z,100.00
2022-10-03T08:43:06.128Z,100.00
2022-10-03T08:48:10.484Z,100.00
2022-10-03T08:53:13.302Z,100.00
2022-10-03T08:58:16.700Z,100.00
2022-10-03T09:03:33.584Z,100.00
2022-10-03T09:08:38.570Z,100.00
2022-10-03T09:13:41.424Z,100.00
2022-10-03T09:18:44.167Z,100.00
2022-10-03T09:23:46.979Z,100.00
2022-10-03T09:28:49.979Z,100.00
2022-10-03T09:33:55.368Z,100.00
2022-10-03T09:38:59.238Z,100.00
2022-10-03T09:44:02.171Z,100.00
2022-10-03T09:49:05.176Z,100.00
2022-10-03T09:54:07.868Z,100.00
2022-10-03T09:59:12.213Z,100.00
2022-10-03T10:04:14.931Z,100.00
2022-10-03T10:09:17.642Z,100.00
2022-10-03T10:14:20.397Z,100.00
2022-10-03T10:19:23.607Z,100.00
2022-10-03T10:24:26.381Z,100.00
2022-10-03T10:29:29.886Z,100.00
2022-10-03T10:34:32.764Z,100.00
2022-10-03T10:39:35.562Z,100.00
2022-10-03T10:44:40.347Z,100.00
2022-10-03T10:49:45.891Z,100.00
2022-10-03T10:54:49.189Z,100.00
2022-10-03T10:59:52.030Z,100.00
2022-10-03T11:04:55.998Z,100.00
2022-10-03T11:09:59.055Z,100.00
2022-10-03T11:15:02.507Z,100.00
2022-10-03T11:20:05.705Z,100.00
2022-10-03T11:25:09.093Z,100.00
2022-10-03T11:30:11.837Z,100.00
2022-10-03T11:35:15.083Z,100.00
2022-10-03T11:40:23.097Z,100.00
2022-10-03T11:45:27.050Z,92.62
2022-10-03T11:50:30.631Z,96.13
2022-10-03T11:55:34.182Z,96.38
2022-10-03T12:00:37.021Z,95.53
2022-10-03T12:05:39.748Z,96.88
2022-10-03T12:10:42.532Z,96.22
2022-10-03T12:15:45.730Z,91.91
2022-10-03T12:20:48.514Z,94.72
2022-10-03T12:25:51.222Z,99.99
2022-10-03T12:30:55.274Z,100.00
2022-10-03T12:35:58.031Z,99.60
2022-10-03T12:41:02.106Z,97.15
2022-10-03T12:46:06.048Z,96.80
2022-10-03T12:51:08.825Z,90.03
2022-10-03T12:56:12.761Z,83.35
2022-10-03T13:01:15.548Z,79.70
2022-10-03T13:06:18.339Z,85.24
2022-10-03T13:11:21.249Z,84.54
2022-10-03T13:16:24.489Z,89.68
2022-10-03T13:21:45.344Z,88.16
2022-10-03T13:26:50.717Z,100.00
2022-10-03T13:31:54.130Z,100.00
2022-10-03T13:36:57.044Z,100.00
2022-10-03T13:42:00.385Z,100.00
2022-10-03T13:47:03.116Z,100.00
2022-10-03T13:52:07.471Z,100.00
2022-10-03T13:57:10.351Z,100.00
2022-10-03T14:02:13.337Z,100.00
2022-10-03T14:07:16.272Z,100.00
2022-10-03T14:12:33.079Z,100.00
2022-10-03T14:17:42.327Z,100.00
2022-10-03T14:22:45.873Z,100.00
2022-10-03T14:27:48.837Z,100.00
2022-10-03T14:32:52.044Z,100.00
2022-10-03T14:37:55.138Z,100.00
2022-10-03T14:42:57.939Z,100.00
2022-10-03T14:48:02.738Z,100.00
2022-10-03T14:53:06.409Z,100.00
2022-10-03T14:58:11.781Z,100.00
2022-10-03T15:03:14.832Z,100.00
2022-10-03T15:08:17.715Z,100.00
2022-10-03T15:13:20.544Z,100.00
2022-10-03T15:18:24.326Z,100.00
2022-10-03T15:23:27.408Z,100.00
2022-10-03T15:28:30.482Z,100.00
2022-10-03T15:33:33.365Z,100.00
2022-10-03T15:38:36.034Z,100.00
2022-10-03T15:43:40.517Z,100.00
2022-10-03T15:48:47.340Z,100.00
2022-10-03T15:53:50.424Z,100.00
2022-10-03T15:58:58.576Z,100.00
2022-10-03T16:04:01.321Z,100.00
2022-10-03T16:09:04.165Z,100.00
2022-10-03T16:14:07.162Z,100.00
2022-10-03T16:19:09.950Z,100.00
2022-10-03T16:24:12.863Z,100.00
2022-10-03T16:29:15.704Z,100.00
2022-10-03T16:34:18.457Z,100.00
2022-10-03T16:39:22.788Z,100.00
2022-10-03T16:44:29.277Z,100.00
2022-10-03T16:49:50.694Z,100.00
2022-10-03T16:54:53.702Z,100.00
2022-10-03T16:59:56.570Z,100.00
2022-10-03T17:05:00.413Z,100.00
2022-10-03T17:10:03.218Z,100.00
2022-10-03T17:15:06.385Z,100.00
2022-10-03T17:20:09.235Z,100.00
2022-10-03T17:25:16.158Z,100.00
2022-10-03T17:30:21.296Z,100.00
2022-10-03T17:35:24.166Z,100.00
2022-10-03T17:40:27.672Z,100.00
2022-10-03T17:45:32.010Z,100.00
2022-10-03T17:50:34.777Z,100.00
2022-10-03T17:55:38.160Z,100.00
2022-10-03T18:00:41.892Z,100.00
2022-10-03T18:05:44.850Z,100.00
2022-10-03T18:10:49.255Z,100.00
2022-10-03T18:15:52.300Z,100.00
2022-10-03T18:20:58.494Z,100.00
2022-10-03T18:26:20.693Z,100.00
2022-10-03T18:31:23.811Z,100.00
2022-10-03T18:36:29.230Z,100.00
2022-10-03T18:41:32.010Z,100.00
2022-10-03T18:46:35.083Z,100.00
2022-10-03T18:51:38.250Z,100.00
2022-10-03T18:56:41.567Z,100.00
2022-10-03T19:01:44.564Z,100.00
2022-10-03T19:06:53.558Z,100.00
2022-10-03T19:11:56.322Z,100.00
2022-10-03T19:16:59.076Z,100.00
2022-10-03T19:22:01.950Z,100.00
2022-10-03T19:27:05.698Z,100.00
2022-10-03T19:32:09.323Z,100.00
2022-10-03T19:37:13.725Z,100.00
2022-10-03T19:42:18.131Z,100.00
2022-10-03T19:47:20.881Z,100.00
2022-10-03T19:52:23.789Z,100.00
2022-10-03T19:57:27.267Z,100.00
2022-10-03T20:02:30.323Z,100.00
2022-10-03T20:07:33.309Z,100.00
2022-10-03T20:12:38.381Z,100.00
2022-10-03T20:17:44.658Z,100.00
2022-10-03T20:22:47.745Z,100.00
2022-10-03T20:27:50.956Z,100.00
2022-10-03T20:32:53.827Z,100.00
2022-10-03T20:37:56.542Z,100.00
2022-10-03T20:43:00.055Z,100.00
2022-10-03T20:48:03.034Z,100.00
2022-10-03T20:53:05.803Z,100.00
2022-10-03T20:58:08.460Z,100.00
2022-10-03T21:03:11.385Z,100.00
2022-10-03T21:08:17.439Z,100.00
2022-10-03T21:13:20.294Z,100.00
2022-10-03T21:18:22.985Z,100.00
2022-10-03T21:23:25.912Z,100.00
2022-10-03T21:28:28.665Z,100.00
2022-10-03T21:33:31.413Z,100.00
2022-10-03T21:38:36.171Z,100.00
2022-10-03T21:43:38.979Z,100.00
2022-10-03T21:48:41.793Z,100.00
2022-10-03T21:53:44.566Z,100.00
2022-10-03T21:58:47.557Z,100.00
2022-10-03T22:03:51.578Z,100.00
2022-10-03T22:08:54.416Z,100.00
2022-10-03T22:13:57.209Z,100.00
2022-10-03T22:19:00.246Z,100.00
2022-10-03T22:24:02.958Z,100.00
2022-10-03T22:29:05.774Z,100.00
2022-10-03T22:34:08.904Z,100.00
2022-10-03T22:39:11.863Z,100.00
2022-10-03T22:44:17.611Z,100.00
2022-10-03T22:49:20.561Z,100.00
2022-10-03T22:54:23.427Z,100.00
2022-10-03T22:59:26.186Z,100.00
2022-10-03T23:04:28.945Z,100.00
2022-10-03T23:09:31.730Z,100.00
2022-10-03T23:14:34.972Z,100.00
2022-10-03T23:19:37.762Z,100.00
2022-10-03T23:24:40.459Z,100.00
2022-10-03T23:29:43.293Z,100.00
2022-10-03T23:34:46.517Z,100.00
2022-10-03T23:39:49.676Z,100.00
2022-10-03T23:44:52.761Z,100.00
2022-10-03T23:50:01.346Z,100.00
2022-10-03T23:55:04.385Z,100.00
